sensor_id;sensor_type;location;lat;lon;timestamp;temperature;humidity
38480;DHT22;62333;51.980;5.934;2024-02-21T00:02:04;12.40;86.70
38480;DHT22;62333;51.980;5.934;2024-02-21T00:04:29;12.40;86.80
38480;DHT22;62333;51.980;5.934;2024-02-21T00:06:55;12.40;87.40
38480;DHT22;62333;51.980;5.934;2024-02-21T00:09:21;12.40;86.80
38480;DHT22;62333;51.980;5.934;2024-02-21T00:11:46;12.40;86.80
38480;DHT22;62333;51.980;5.934;2024-02-21T00:14:13;12.40;86.90
38480;DHT22;62333;51.980;5.934;2024-02-21T00:16:38;12.40;86.80
38480;DHT22;62333;51.980;5.934;2024-02-21T00:19:04;12.50;86.80
38480;DHT22;62333;51.980;5.934;2024-02-21T00:21:30;12.50;86.70
38480;DHT22;62333;51.980;5.934;2024-02-21T00:23:55;12.50;86.70
38480;DHT22;62333;51.980;5.934;2024-02-21T00:26:21;12.50;86.70
38480;DHT22;62333;51.980;5.934;2024-02-21T00:28:46;12.60;86.60
38480;DHT22;62333;51.980;5.934;2024-02-21T00:31:12;12.50;86.50
38480;DHT22;62333;51.980;5.934;2024-02-21T00:33:38;12.50;86.50
38480;DHT22;62333;51.980;5.934;2024-02-21T00:36:04;12.60;86.50
38480;DHT22;62333;51.980;5.934;2024-02-21T00:38:29;12.50;86.40
38480;DHT22;62333;51.980;5.934;2024-02-21T00:40:55;12.60;86.40
38480;DHT22;62333;51.980;5.934;2024-02-21T00:43:21;12.60;86.40
38480;DHT22;62333;51.980;5.934;2024-02-21T00:45:49;12.60;86.50
38480;DHT22;62333;51.980;5.934;2024-02-21T00:48:15;12.60;86.40
38480;DHT22;62333;51.980;5.934;2024-02-21T00:50:41;12.60;86.30
38480;DHT22;62333;51.980;5.934;2024-02-21T00:53:06;12.60;86.20
38480;DHT22;62333;51.980;5.934;2024-02-21T00:55:32;12.70;86.10
38480;DHT22;62333;51.980;5.934;2024-02-21T00:57:58;12.60;86.20
38480;DHT22;62333;51.980;5.934;2024-02-21T01:00:23;12.60;86.30
38480;DHT22;62333;51.980;5.934;2024-02-21T01:02:49;12.60;86.20
38480;DHT22;62333;51.980;5.934;2024-02-21T01:05:15;12.60;86.20
38480;DHT22;62333;51.980;5.934;2024-02-21T01:07:40;12.70;86.20
38480;DHT22;62333;51.980;5.934;2024-02-21T01:10:06;12.60;86.10
38480;DHT22;62333;51.980;5.934;2024-02-21T01:12:32;12.60;86.20
38480;DHT22;62333;51.980;5.934;2024-02-21T01:14:58;12.60;86.10
38480;DHT22;62333;51.980;5.934;2024-02-21T01:17:23;12.60;86.10
38480;DHT22;62333;51.980;5.934;2024-02-21T01:19:49;12.60;86.20
38480;DHT22;62333;51.980;5.934;2024-02-21T01:22:15;12.60;86.20
38480;DHT22;62333;51.980;5.934;2024-02-21T01:24:41;12.60;86.10
38480;DHT22;62333;51.980;5.934;2024-02-21T01:27:07;12.60;85.90
38480;DHT22;62333;51.980;5.934;2024-02-21T01:29:33;12.60;86.00
38480;DHT22;62333;51.980;5.934;2024-02-21T01:31:58;12.60;86.00
38480;DHT22;62333;51.980;5.934;2024-02-21T01:34:24;12.50;85.70
38480;DHT22;62333;51.980;5.934;2024-02-21T01:36:50;12.50;85.80
38480;DHT22;62333;51.980;5.934;2024-02-21T01:39:16;12.50;85.90
38480;DHT22;62333;51.980;5.934;2024-02-21T01:41:41;12.50;86.00
38480;DHT22;62333;51.980;5.934;2024-02-21T01:44:07;12.50;86.10
38480;DHT22;62333;51.980;5.934;2024-02-21T01:46:33;12.50;86.20
38480;DHT22;62333;51.980;5.934;2024-02-21T01:48:59;12.50;86.20
38480;DHT22;62333;51.980;5.934;2024-02-21T01:51:25;12.50;86.10
38480;DHT22;62333;51.980;5.934;2024-02-21T01:53:51;12.50;86.10
38480;DHT22;62333;51.980;5.934;2024-02-21T01:56:18;12.50;86.10
38480;DHT22;62333;51.980;5.934;2024-02-21T01:58:46;12.50;86.00
38480;DHT22;62333;51.980;5.934;2024-02-21T02:01:13;12.60;86.20
38480;DHT22;62333;51.980;5.934;2024-02-21T02:03:38;12.60;86.20
38480;DHT22;62333;51.980;5.934;2024-02-21T02:06:05;12.50;86.20
38480;DHT22;62333;51.980;5.934;2024-02-21T02:08:32;12.50;86.20
38480;DHT22;62333;51.980;5.934;2024-02-21T02:10:59;12.50;86.20
38480;DHT22;62333;51.980;5.934;2024-02-21T02:13:25;12.50;86.30
38480;DHT22;62333;51.980;5.934;2024-02-21T02:15:51;12.50;86.30
38480;DHT22;62333;51.980;5.934;2024-02-21T02:18:19;12.50;86.40
38480;DHT22;62333;51.980;5.934;2024-02-21T02:20:45;12.50;86.30
38480;DHT22;62333;51.980;5.934;2024-02-21T02:23:26;12.40;86.40
38480;DHT22;62333;51.980;5.934;2024-02-21T02:25:52;12.50;86.40
38480;DHT22;62333;51.980;5.934;2024-02-21T02:28:18;12.40;87.20
38480;DHT22;62333;51.980;5.934;2024-02-21T02:30:44;12.40;86.70
38480;DHT22;62333;51.980;5.934;2024-02-21T02:33:10;12.40;86.60
38480;DHT22;62333;51.980;5.934;2024-02-21T02:35:36;12.40;86.60
38480;DHT22;62333;51.980;5.934;2024-02-21T02:38:02;12.40;86.70
38480;DHT22;62333;51.980;5.934;2024-02-21T02:40:28;12.30;86.70
38480;DHT22;62333;51.980;5.934;2024-02-21T02:42:54;12.30;86.80
38480;DHT22;62333;51.980;5.934;2024-02-21T02:45:24;12.30;86.70
38480;DHT22;62333;51.980;5.934;2024-02-21T02:47:55;12.30;86.80
38480;DHT22;62333;51.980;5.934;2024-02-21T02:50:22;12.30;86.90
38480;DHT22;62333;51.980;5.934;2024-02-21T02:52:48;12.30;86.90
38480;DHT22;62333;51.980;5.934;2024-02-21T02:55:14;12.30;86.90
38480;DHT22;62333;51.980;5.934;2024-02-21T02:57:40;12.30;87.00
38480;DHT22;62333;51.980;5.934;2024-02-21T03:00:08;12.30;87.00
38480;DHT22;62333;51.980;5.934;2024-02-21T03:02:35;12.30;87.00
38480;DHT22;62333;51.980;5.934;2024-02-21T03:05:00;12.30;87.00
38480;DHT22;62333;51.980;5.934;2024-02-21T03:07:26;12.30;87.00
38480;DHT22;62333;51.980;5.934;2024-02-21T03:09:52;12.30;87.00
38480;DHT22;62333;51.980;5.934;2024-02-21T03:12:18;12.30;87.00
38480;DHT22;62333;51.980;5.934;2024-02-21T03:14:50;12.30;87.00
38480;DHT22;62333;51.980;5.934;2024-02-21T03:17:16;12.20;87.00
38480;DHT22;62333;51.980;5.934;2024-02-21T03:19:41;12.30;87.20
38480;DHT22;62333;51.980;5.934;2024-02-21T03:22:07;12.30;87.10
38480;DHT22;62333;51.980;5.934;2024-02-21T03:24:33;12.30;87.10
38480;DHT22;62333;51.980;5.934;2024-02-21T03:26:59;12.30;87.20
38480;DHT22;62333;51.980;5.934;2024-02-21T03:29:25;12.30;87.10
38480;DHT22;62333;51.980;5.934;2024-02-21T03:31:51;12.30;87.10
38480;DHT22;62333;51.980;5.934;2024-02-21T03:34:16;12.30;87.10
38480;DHT22;62333;51.980;5.934;2024-02-21T03:36:42;12.30;87.00
38480;DHT22;62333;51.980;5.934;2024-02-21T03:39:08;12.20;86.90
38480;DHT22;62333;51.980;5.934;2024-02-21T03:41:35;12.30;87.00
38480;DHT22;62333;51.980;5.934;2024-02-21T03:44:01;12.30;87.00
38480;DHT22;62333;51.980;5.934;2024-02-21T03:46:27;12.20;87.00
38480;DHT22;62333;51.980;5.934;2024-02-21T03:48:53;12.30;87.00
38480;DHT22;62333;51.980;5.934;2024-02-21T03:51:19;12.30;87.00
38480;DHT22;62333;51.980;5.934;2024-02-21T03:53:44;12.30;86.80
38480;DHT22;62333;51.980;5.934;2024-02-21T03:56:10;12.30;86.80
38480;DHT22;62333;51.980;5.934;2024-02-21T03:58:35;12.40;86.80
38480;DHT22;62333;51.980;5.934;2024-02-21T04:01:02;12.40;86.80
38480;DHT22;62333;51.980;5.934;2024-02-21T04:03:28;12.40;86.80
38480;DHT22;62333;51.980;5.934;2024-02-21T04:05:53;12.40;86.80
38480;DHT22;62333;51.980;5.934;2024-02-21T04:08:19;12.40;86.80
38480;DHT22;62333;51.980;5.934;2024-02-21T04:10:45;12.40;86.70
38480;DHT22;62333;51.980;5.934;2024-02-21T04:13:10;12.40;86.70
38480;DHT22;62333;51.980;5.934;2024-02-21T04:15:36;12.40;86.50
38480;DHT22;62333;51.980;5.934;2024-02-21T04:18:02;12.40;86.50
38480;DHT22;62333;51.980;5.934;2024-02-21T04:20:29;12.40;86.40
38480;DHT22;62333;51.980;5.934;2024-02-21T04:22:55;12.40;86.40
38480;DHT22;62333;51.980;5.934;2024-02-21T04:25:20;12.40;86.40
38480;DHT22;62333;51.980;5.934;2024-02-21T04:27:46;12.40;86.30
38480;DHT22;62333;51.980;5.934;2024-02-21T04:30:12;12.40;86.30
38480;DHT22;62333;51.980;5.934;2024-02-21T04:32:38;12.40;86.40
38480;DHT22;62333;51.980;5.934;2024-02-21T04:35:04;12.40;86.30
38480;DHT22;62333;51.980;5.934;2024-02-21T04:37:30;12.40;86.30
38480;DHT22;62333;51.980;5.934;2024-02-21T04:39:56;12.40;86.20
38480;DHT22;62333;51.980;5.934;2024-02-21T04:42:22;12.50;86.20
38480;DHT22;62333;51.980;5.934;2024-02-21T04:44:47;12.40;86.10
38480;DHT22;62333;51.980;5.934;2024-02-21T04:47:13;12.40;86.10
38480;DHT22;62333;51.980;5.934;2024-02-21T04:49:39;12.40;86.00
38480;DHT22;62333;51.980;5.934;2024-02-21T04:52:05;12.50;86.10
38480;DHT22;62333;51.980;5.934;2024-02-21T04:54:31;12.50;86.00
38480;DHT22;62333;51.980;5.934;2024-02-21T04:56:56;12.40;85.80
38480;DHT22;62333;51.980;5.934;2024-02-21T04:59:22;12.40;85.90
38480;DHT22;62333;51.980;5.934;2024-02-21T05:01:47;12.40;85.80
38480;DHT22;62333;51.980;5.934;2024-02-21T05:04:13;12.40;85.70
38480;DHT22;62333;51.980;5.934;2024-02-21T05:06:40;12.40;85.80
38480;DHT22;62333;51.980;5.934;2024-02-21T05:09:06;12.40;85.70
38480;DHT22;62333;51.980;5.934;2024-02-21T05:11:32;12.40;85.80
38480;DHT22;62333;51.980;5.934;2024-02-21T05:13:58;12.40;85.90
38480;DHT22;62333;51.980;5.934;2024-02-21T05:16:23;12.40;85.80
38480;DHT22;62333;51.980;5.934;2024-02-21T05:18:49;12.50;85.80
38480;DHT22;62333;51.980;5.934;2024-02-21T05:21:15;12.40;85.70
38480;DHT22;62333;51.980;5.934;2024-02-21T05:23:40;12.40;85.60
38480;DHT22;62333;51.980;5.934;2024-02-21T05:26:06;12.40;85.70
38480;DHT22;62333;51.980;5.934;2024-02-21T05:28:32;12.40;85.60
38480;DHT22;62333;51.980;5.934;2024-02-21T05:30:58;12.40;85.60
38480;DHT22;62333;51.980;5.934;2024-02-21T05:33:24;12.50;85.70
38480;DHT22;62333;51.980;5.934;2024-02-21T05:35:50;12.50;85.70
38480;DHT22;62333;51.980;5.934;2024-02-21T05:38:16;12.50;85.70
38480;DHT22;62333;51.980;5.934;2024-02-21T05:40:42;12.50;85.60
38480;DHT22;62333;51.980;5.934;2024-02-21T05:43:08;12.50;85.50
38480;DHT22;62333;51.980;5.934;2024-02-21T05:45:34;12.50;85.50
38480;DHT22;62333;51.980;5.934;2024-02-21T05:48:00;12.50;85.50
38480;DHT22;62333;51.980;5.934;2024-02-21T05:50:26;12.50;85.50
38480;DHT22;62333;51.980;5.934;2024-02-21T05:52:54;12.40;85.50
38480;DHT22;62333;51.980;5.934;2024-02-21T05:55:21;12.40;85.50
38480;DHT22;62333;51.980;5.934;2024-02-21T05:57:47;12.40;85.50
38480;DHT22;62333;51.980;5.934;2024-02-21T06:00:13;12.40;85.50
38480;DHT22;62333;51.980;5.934;2024-02-21T06:02:39;12.40;85.50
38480;DHT22;62333;51.980;5.934;2024-02-21T06:05:06;12.50;85.50
38480;DHT22;62333;51.980;5.934;2024-02-21T06:07:33;12.50;85.50
38480;DHT22;62333;51.980;5.934;2024-02-21T06:10:00;12.50;85.50
38480;DHT22;62333;51.980;5.934;2024-02-21T06:12:25;12.50;85.50
38480;DHT22;62333;51.980;5.934;2024-02-21T06:14:52;12.50;85.50
38480;DHT22;62333;51.980;5.934;2024-02-21T06:17:18;12.40;85.50
38480;DHT22;62333;51.980;5.934;2024-02-21T06:19:44;12.50;85.50
38480;DHT22;62333;51.980;5.934;2024-02-21T06:22:10;12.40;85.50
38480;DHT22;62333;51.980;5.934;2024-02-21T06:24:36;12.40;85.50
38480;DHT22;62333;51.980;5.934;2024-02-21T06:27:04;12.40;85.60
38480;DHT22;62333;51.980;5.934;2024-02-21T06:29:31;12.40;85.60
38480;DHT22;62333;51.980;5.934;2024-02-21T06:31:57;12.40;85.50
38480;DHT22;62333;51.980;5.934;2024-02-21T06:34:23;12.40;85.60
38480;DHT22;62333;51.980;5.934;2024-02-21T06:36:50;12.40;85.50
38480;DHT22;62333;51.980;5.934;2024-02-21T06:39:15;12.40;85.60
38480;DHT22;62333;51.980;5.934;2024-02-21T06:41:41;12.40;85.60
38480;DHT22;62333;51.980;5.934;2024-02-21T06:44:07;12.40;85.50
38480;DHT22;62333;51.980;5.934;2024-02-21T06:46:32;12.40;85.50
38480;DHT22;62333;51.980;5.934;2024-02-21T06:49:01;12.40;85.50
38480;DHT22;62333;51.980;5.934;2024-02-21T06:51:28;12.40;85.50
38480;DHT22;62333;51.980;5.934;2024-02-21T06:53:55;12.40;85.50
38480;DHT22;62333;51.980;5.934;2024-02-21T06:56:23;12.30;85.60
38480;DHT22;62333;51.980;5.934;2024-02-21T06:58:52;12.30;85.60
38480;DHT22;62333;51.980;5.934;2024-02-21T07:01:18;12.30;85.70
38480;DHT22;62333;51.980;5.934;2024-02-21T07:03:43;12.30;85.50
38480;DHT22;62333;51.980;5.934;2024-02-21T07:06:09;12.40;85.50
38480;DHT22;62333;51.980;5.934;2024-02-21T07:08:34;12.30;85.40
38480;DHT22;62333;51.980;5.934;2024-02-21T07:11:00;12.40;85.50
38480;DHT22;62333;51.980;5.934;2024-02-21T07:13:26;12.30;85.40
38480;DHT22;62333;51.980;5.934;2024-02-21T07:15:51;12.30;85.40
38480;DHT22;62333;51.980;5.934;2024-02-21T07:18:17;12.30;85.50
38480;DHT22;62333;51.980;5.934;2024-02-21T07:20:43;12.30;85.50
38480;DHT22;62333;51.980;5.934;2024-02-21T07:23:08;12.30;85.50
38480;DHT22;62333;51.980;5.934;2024-02-21T07:25:34;12.30;85.40
38480;DHT22;62333;51.980;5.934;2024-02-21T07:28:00;12.30;85.40
38480;DHT22;62333;51.980;5.934;2024-02-21T07:30:25;12.30;85.40
38480;DHT22;62333;51.980;5.934;2024-02-21T07:32:51;12.30;85.40
38480;DHT22;62333;51.980;5.934;2024-02-21T07:35:18;12.30;85.30
38480;DHT22;62333;51.980;5.934;2024-02-21T07:37:43;12.30;85.30
38480;DHT22;62333;51.980;5.934;2024-02-21T07:40:13;12.40;85.30
38480;DHT22;62333;51.980;5.934;2024-02-21T07:42:39;12.40;85.30
38480;DHT22;62333;51.980;5.934;2024-02-21T07:45:09;12.40;85.30
38480;DHT22;62333;51.980;5.934;2024-02-21T07:47:36;12.40;85.30
38480;DHT22;62333;51.980;5.934;2024-02-21T07:50:03;12.40;85.30
38480;DHT22;62333;51.980;5.934;2024-02-21T07:52:29;12.40;85.30
38480;DHT22;62333;51.980;5.934;2024-02-21T07:54:54;12.40;85.30
38480;DHT22;62333;51.980;5.934;2024-02-21T07:57:20;12.40;85.30
38480;DHT22;62333;51.980;5.934;2024-02-21T07:59:47;12.40;85.30
38480;DHT22;62333;51.980;5.934;2024-02-21T08:02:16;12.40;85.30
38480;DHT22;62333;51.980;5.934;2024-02-21T08:04:42;12.40;85.20
38480;DHT22;62333;51.980;5.934;2024-02-21T08:07:08;12.40;85.30
38480;DHT22;62333;51.980;5.934;2024-02-21T08:09:35;12.40;85.20
38480;DHT22;62333;51.980;5.934;2024-02-21T08:12:00;12.40;85.30
38480;DHT22;62333;51.980;5.934;2024-02-21T08:14:26;12.40;85.40
38480;DHT22;62333;51.980;5.934;2024-02-21T08:16:52;12.40;85.40
38480;DHT22;62333;51.980;5.934;2024-02-21T08:19:21;12.40;85.40
38480;DHT22;62333;51.980;5.934;2024-02-21T08:21:50;12.40;85.30
38480;DHT22;62333;51.980;5.934;2024-02-21T08:24:16;12.40;85.30
38480;DHT22;62333;51.980;5.934;2024-02-21T08:26:42;12.50;85.20
38480;DHT22;62333;51.980;5.934;2024-02-21T08:29:08;12.50;85.10
38480;DHT22;62333;51.980;5.934;2024-02-21T08:31:33;12.50;85.20
38480;DHT22;62333;51.980;5.934;2024-02-21T08:34:00;12.50;85.30
38480;DHT22;62333;51.980;5.934;2024-02-21T08:36:33;12.40;85.20
38480;DHT22;62333;51.980;5.934;2024-02-21T08:38:59;12.40;85.30
38480;DHT22;62333;51.980;5.934;2024-02-21T08:41:26;12.50;85.30
38480;DHT22;62333;51.980;5.934;2024-02-21T08:43:53;12.50;85.10
38480;DHT22;62333;51.980;5.934;2024-02-21T08:46:20;12.50;85.10
38480;DHT22;62333;51.980;5.934;2024-02-21T08:48:46;12.50;85.10
38480;DHT22;62333;51.980;5.934;2024-02-21T08:51:12;12.50;85.10
38480;DHT22;62333;51.980;5.934;2024-02-21T08:53:38;12.50;85.20
38480;DHT22;62333;51.980;5.934;2024-02-21T08:56:04;12.50;85.20
38480;DHT22;62333;51.980;5.934;2024-02-21T08:58:30;12.50;85.30
38480;DHT22;62333;51.980;5.934;2024-02-21T09:00:56;12.50;85.20
38480;DHT22;62333;51.980;5.934;2024-02-21T09:03:22;12.50;85.20
38480;DHT22;62333;51.980;5.934;2024-02-21T09:05:48;12.50;85.10
38480;DHT22;62333;51.980;5.934;2024-02-21T09:08:14;12.50;84.80
38480;DHT22;62333;51.980;5.934;2024-02-21T09:10:40;12.50;84.80
38480;DHT22;62333;51.980;5.934;2024-02-21T09:13:05;12.50;84.90
38480;DHT22;62333;51.980;5.934;2024-02-21T09:15:33;12.60;84.90
38480;DHT22;62333;51.980;5.934;2024-02-21T09:17:59;12.50;84.70
38480;DHT22;62333;51.980;5.934;2024-02-21T09:20:24;12.60;84.70
38480;DHT22;62333;51.980;5.934;2024-02-21T09:22:50;12.50;84.60
38480;DHT22;62333;51.980;5.934;2024-02-21T09:25:16;12.50;84.60
38480;DHT22;62333;51.980;5.934;2024-02-21T09:27:44;12.50;84.50
38480;DHT22;62333;51.980;5.934;2024-02-21T09:30:10;12.50;84.60
38480;DHT22;62333;51.980;5.934;2024-02-21T09:32:36;12.50;84.50
38480;DHT22;62333;51.980;5.934;2024-02-21T09:35:03;12.50;84.60
38480;DHT22;62333;51.980;5.934;2024-02-21T09:37:28;12.50;84.50
38480;DHT22;62333;51.980;5.934;2024-02-21T09:39:54;12.60;84.50
38480;DHT22;62333;51.980;5.934;2024-02-21T09:42:31;12.60;84.50
38480;DHT22;62333;51.980;5.934;2024-02-21T09:45:03;12.60;84.30
38480;DHT22;62333;51.980;5.934;2024-02-21T09:50:30;12.60;84.20
38480;DHT22;62333;51.980;5.934;2024-02-21T09:52:58;12.60;84.40
38480;DHT22;62333;51.980;5.934;2024-02-21T09:55:27;12.70;84.30
38480;DHT22;62333;51.980;5.934;2024-02-21T09:57:54;12.70;84.30
38480;DHT22;62333;51.980;5.934;2024-02-21T10:00:21;12.70;84.20
38480;DHT22;62333;51.980;5.934;2024-02-21T10:02:48;12.70;84.10
38480;DHT22;62333;51.980;5.934;2024-02-21T10:05:15;12.70;83.90
38480;DHT22;62333;51.980;5.934;2024-02-21T10:07:41;12.60;84.00
38480;DHT22;62333;51.980;5.934;2024-02-21T10:10:07;12.60;84.30
38480;DHT22;62333;51.980;5.934;2024-02-21T10:12:33;12.60;84.30
38480;DHT22;62333;51.980;5.934;2024-02-21T10:17:27;12.60;84.20
38480;DHT22;62333;51.980;5.934;2024-02-21T10:19:53;12.60;84.30
38480;DHT22;62333;51.980;5.934;2024-02-21T10:22:18;12.60;84.40
38480;DHT22;62333;51.980;5.934;2024-02-21T10:24:46;12.60;84.20
38480;DHT22;62333;51.980;5.934;2024-02-21T10:27:12;12.60;84.20
38480;DHT22;62333;51.980;5.934;2024-02-21T10:29:38;12.60;84.30
38480;DHT22;62333;51.980;5.934;2024-02-21T10:32:09;12.60;84.30
38480;DHT22;62333;51.980;5.934;2024-02-21T10:34:35;12.60;84.10
38480;DHT22;62333;51.980;5.934;2024-02-21T10:37:05;12.60;84.10
38480;DHT22;62333;51.980;5.934;2024-02-21T10:39:37;12.60;84.20
38480;DHT22;62333;51.980;5.934;2024-02-21T10:42:03;12.60;84.10
38480;DHT22;62333;51.980;5.934;2024-02-21T10:44:30;12.40;84.20
38480;DHT22;62333;51.980;5.934;2024-02-21T10:47:00;12.40;84.40
38480;DHT22;62333;51.980;5.934;2024-02-21T10:49:29;12.40;84.50
38480;DHT22;62333;51.980;5.934;2024-02-21T10:52:17;12.40;84.60
38480;DHT22;62333;51.980;5.934;2024-02-21T10:54:55;12.40;84.50
38480;DHT22;62333;51.980;5.934;2024-02-21T10:57:22;12.40;84.60
38480;DHT22;62333;51.980;5.934;2024-02-21T10:59:49;12.40;84.90
38480;DHT22;62333;51.980;5.934;2024-02-21T11:02:15;12.40;85.00
38480;DHT22;62333;51.980;5.934;2024-02-21T11:04:41;12.40;85.10
38480;DHT22;62333;51.980;5.934;2024-02-21T11:07:08;12.40;85.10
38480;DHT22;62333;51.980;5.934;2024-02-21T11:09:34;12.40;85.10
38480;DHT22;62333;51.980;5.934;2024-02-21T11:12:04;12.40;85.10
38480;DHT22;62333;51.980;5.934;2024-02-21T11:14:31;12.50;85.10
38480;DHT22;62333;51.980;5.934;2024-02-21T11:17:17;12.50;85.30
38480;DHT22;62333;51.980;5.934;2024-02-21T11:19:43;12.40;85.10
38480;DHT22;62333;51.980;5.934;2024-02-21T11:22:18;12.40;85.30
38480;DHT22;62333;51.980;5.934;2024-02-21T11:24:46;12.50;85.10
38480;DHT22;62333;51.980;5.934;2024-02-21T11:29:48;12.50;85.20
38480;DHT22;62333;51.980;5.934;2024-02-21T11:32:17;12.50;85.00
38480;DHT22;62333;51.980;5.934;2024-02-21T11:34:59;12.50;85.10
38480;DHT22;62333;51.980;5.934;2024-02-21T11:37:29;12.50;84.90
38480;DHT22;62333;51.980;5.934;2024-02-21T11:39:56;12.50;85.10
38480;DHT22;62333;51.980;5.934;2024-02-21T11:42:22;12.50;85.00
38480;DHT22;62333;51.980;5.934;2024-02-21T11:44:48;12.50;85.10
38480;DHT22;62333;51.980;5.934;2024-02-21T11:47:14;12.50;85.20
38480;DHT22;62333;51.980;5.934;2024-02-21T11:49:47;12.50;85.20
38480;DHT22;62333;51.980;5.934;2024-02-21T11:52:15;12.50;85.00
38480;DHT22;62333;51.980;5.934;2024-02-21T11:54:42;12.50;85.00
38480;DHT22;62333;51.980;5.934;2024-02-21T11:57:08;12.50;85.00
38480;DHT22;62333;51.980;5.934;2024-02-21T11:59:34;12.50;85.00
38480;DHT22;62333;51.980;5.934;2024-02-21T12:02:00;12.50;85.00
38480;DHT22;62333;51.980;5.934;2024-02-21T12:04:26;12.60;85.00
38480;DHT22;62333;51.980;5.934;2024-02-21T12:06:56;12.60;84.80
38480;DHT22;62333;51.980;5.934;2024-02-21T12:09:23;12.70;84.70
38480;DHT22;62333;51.980;5.934;2024-02-21T12:12:00;12.70;84.60
38480;DHT22;62333;51.980;5.934;2024-02-21T12:14:28;12.70;84.20
38480;DHT22;62333;51.980;5.934;2024-02-21T12:16:54;12.70;84.40
38480;DHT22;62333;51.980;5.934;2024-02-21T12:19:20;12.70;84.40
38480;DHT22;62333;51.980;5.934;2024-02-21T12:21:48;12.70;84.30
38480;DHT22;62333;51.980;5.934;2024-02-21T12:24:22;12.70;84.20
38480;DHT22;62333;51.980;5.934;2024-02-21T12:26:51;12.80;84.20
38480;DHT22;62333;51.980;5.934;2024-02-21T12:29:20;12.80;84.00
38480;DHT22;62333;51.980;5.934;2024-02-21T12:31:47;12.80;84.00
38480;DHT22;62333;51.980;5.934;2024-02-21T12:34:13;12.90;83.80
38480;DHT22;62333;51.980;5.934;2024-02-21T12:36:43;12.90;83.50
38480;DHT22;62333;51.980;5.934;2024-02-21T12:39:10;13.00;83.30
38480;DHT22;62333;51.980;5.934;2024-02-21T12:41:36;13.00;83.30
38480;DHT22;62333;51.980;5.934;2024-02-21T12:44:04;13.10;83.30
38480;DHT22;62333;51.980;5.934;2024-02-21T12:46:33;13.10;83.30
38480;DHT22;62333;51.980;5.934;2024-02-21T12:48:58;13.20;83.40
38480;DHT22;62333;51.980;5.934;2024-02-21T12:51:24;13.20;83.20
38480;DHT22;62333;51.980;5.934;2024-02-21T12:53:50;13.20;83.10
38480;DHT22;62333;51.980;5.934;2024-02-21T12:56:16;13.20;82.90
38480;DHT22;62333;51.980;5.934;2024-02-21T12:58:42;13.20;82.60
38480;DHT22;62333;51.980;5.934;2024-02-21T13:01:07;13.20;82.50
38480;DHT22;62333;51.980;5.934;2024-02-21T13:03:33;13.20;82.40
38480;DHT22;62333;51.980;5.934;2024-02-21T13:05:59;13.20;82.50
38480;DHT22;62333;51.980;5.934;2024-02-21T13:08:25;13.20;82.50
38480;DHT22;62333;51.980;5.934;2024-02-21T13:10:51;13.30;83.00
38480;DHT22;62333;51.980;5.934;2024-02-21T13:13:17;13.20;82.60
38480;DHT22;62333;51.980;5.934;2024-02-21T13:15:42;13.20;82.40
38480;DHT22;62333;51.980;5.934;2024-02-21T13:18:08;13.20;82.00
38480;DHT22;62333;51.980;5.934;2024-02-21T13:20:35;13.20;82.10
38480;DHT22;62333;51.980;5.934;2024-02-21T13:23:01;13.20;81.90
38480;DHT22;62333;51.980;5.934;2024-02-21T13:25:26;13.20;81.80
38480;DHT22;62333;51.980;5.934;2024-02-21T13:27:52;13.30;81.90
38480;DHT22;62333;51.980;5.934;2024-02-21T13:30:18;13.30;81.90
38480;DHT22;62333;51.980;5.934;2024-02-21T13:32:44;13.30;81.80
38480;DHT22;62333;51.980;5.934;2024-02-21T13:35:12;13.30;81.40
38480;DHT22;62333;51.980;5.934;2024-02-21T13:37:38;13.30;81.50
38480;DHT22;62333;51.980;5.934;2024-02-21T13:40:05;13.30;81.40
38480;DHT22;62333;51.980;5.934;2024-02-21T13:42:31;13.30;81.90
38480;DHT22;62333;51.980;5.934;2024-02-21T13:44:56;13.30;81.50
38480;DHT22;62333;51.980;5.934;2024-02-21T13:47:22;13.30;81.30
38480;DHT22;62333;51.980;5.934;2024-02-21T13:49:48;13.40;81.40
38480;DHT22;62333;51.980;5.934;2024-02-21T13:52:13;13.40;81.50
38480;DHT22;62333;51.980;5.934;2024-02-21T13:54:40;13.40;81.20
38480;DHT22;62333;51.980;5.934;2024-02-21T13:57:05;13.50;81.10
38480;DHT22;62333;51.980;5.934;2024-02-21T13:59:31;13.40;80.80
38480;DHT22;62333;51.980;5.934;2024-02-21T14:01:59;13.50;81.00
38480;DHT22;62333;51.980;5.934;2024-02-21T14:04:24;13.50;81.10
38480;DHT22;62333;51.980;5.934;2024-02-21T14:06:50;13.50;81.30
38480;DHT22;62333;51.980;5.934;2024-02-21T14:09:16;13.50;81.10
38480;DHT22;62333;51.980;5.934;2024-02-21T14:11:42;13.40;81.10
38480;DHT22;62333;51.980;5.934;2024-02-21T14:14:08;13.40;80.90
38480;DHT22;62333;51.980;5.934;2024-02-21T14:16:33;13.40;80.80
38480;DHT22;62333;51.980;5.934;2024-02-21T14:18:59;13.50;80.70
38480;DHT22;62333;51.980;5.934;2024-02-21T14:21:25;13.50;80.60
38480;DHT22;62333;51.980;5.934;2024-02-21T14:23:51;13.50;80.20
38480;DHT22;62333;51.980;5.934;2024-02-21T14:26:18;13.50;80.20
38480;DHT22;62333;51.980;5.934;2024-02-21T14:28:44;13.50;80.00
38480;DHT22;62333;51.980;5.934;2024-02-21T14:31:11;13.50;79.70
38480;DHT22;62333;51.980;5.934;2024-02-21T14:33:37;13.50;79.40
38480;DHT22;62333;51.980;5.934;2024-02-21T14:36:03;13.50;79.20
38480;DHT22;62333;51.980;5.934;2024-02-21T14:38:29;13.50;79.10
38480;DHT22;62333;51.980;5.934;2024-02-21T14:40:55;13.50;79.00
38480;DHT22;62333;51.980;5.934;2024-02-21T14:43:20;13.50;78.80
38480;DHT22;62333;51.980;5.934;2024-02-21T14:45:47;13.50;78.70
38480;DHT22;62333;51.980;5.934;2024-02-21T14:48:13;13.50;78.80
38480;DHT22;62333;51.980;5.934;2024-02-21T14:50:39;13.50;78.30
38480;DHT22;62333;51.980;5.934;2024-02-21T14:53:05;13.50;78.30
38480;DHT22;62333;51.980;5.934;2024-02-21T14:55:30;13.50;78.60
38480;DHT22;62333;51.980;5.934;2024-02-21T14:57:56;13.50;78.60
38480;DHT22;62333;51.980;5.934;2024-02-21T15:00:22;13.50;78.30
38480;DHT22;62333;51.980;5.934;2024-02-21T15:02:57;13.50;78.20
38480;DHT22;62333;51.980;5.934;2024-02-21T15:05:24;13.50;78.10
38480;DHT22;62333;51.980;5.934;2024-02-21T15:07:50;13.40;78.10
38480;DHT22;62333;51.980;5.934;2024-02-21T15:10:16;13.40;78.30
38480;DHT22;62333;51.980;5.934;2024-02-21T15:12:44;13.40;78.40
38480;DHT22;62333;51.980;5.934;2024-02-21T15:15:10;13.40;78.30
38480;DHT22;62333;51.980;5.934;2024-02-21T15:17:35;13.40;78.30
38480;DHT22;62333;51.980;5.934;2024-02-21T15:20:01;13.30;78.30
38480;DHT22;62333;51.980;5.934;2024-02-21T15:22:27;13.30;78.50
38480;DHT22;62333;51.980;5.934;2024-02-21T15:24:53;13.30;78.50
38480;DHT22;62333;51.980;5.934;2024-02-21T15:27:18;13.30;78.50
38480;DHT22;62333;51.980;5.934;2024-02-21T15:29:44;13.30;78.70
38480;DHT22;62333;51.980;5.934;2024-02-21T15:32:10;13.30;78.70
38480;DHT22;62333;51.980;5.934;2024-02-21T15:34:36;13.30;78.70